sensor_id;sensor_type;location;lat;lon;timestamp;pressure;altitude;pressure_sealevel;temperature;humidity
54503;BME280;40411;50.090;21.954;2022-08-07T00:00:25;153474.47;;;17.62;100.00
54503;BME280;40411;50.090;21.954;2022-08-07T00:03:05;153423.06;;;17.41;100.00
54503;BME280;40411;50.090;21.954;2022-08-07T00:05:31;153423.06;;;17.41;100.00
54503;BME280;40411;50.090;21.954;2022-08-07T00:07:56;153420.47;;;17.40;100.00
54503;BME280;40411;50.090;21.954;2022-08-07T00:10:22;153428.16;;;17.43;100.00
54503;BME280;40411;50.090;21.954;2022-08-07T00:12:48;153423.06;;;17.41;100.00
54503;BME280;40411;50.090;21.954;2022-08-07T00:15:14;153460.31;;;17.56;100.00
54503;BME280;40411;50.090;21.954;2022-08-07T00:17:40;153389.63;;;17.28;100.00
54503;BME280;40411;50.090;21.954;2022-08-07T00:20:07;153326.66;;;17.03;100.00
54503;BME280;40411;50.090;21.954;2022-08-07T00:22:33;153405.03;;;17.34;100.00
54503;BME280;40411;50.090;21.954;2022-08-07T00:24:59;153363.91;;;17.18;100.00
54503;BME280;40411;50.090;21.954;2022-08-07T00:27:26;153330.47;;;17.05;100.00
54503;BME280;40411;50.090;21.954;2022-08-07T00:29:52;153392.19;;;17.29;100.00
54503;BME280;40411;50.090;21.954;2022-08-07T00:32:17;153365.19;;;17.18;100.00
54503;BME280;40411;50.090;21.954;2022-08-07T00:34:43;153380.66;;;17.25;100.00
54503;BME280;40411;50.090;21.954;2022-08-07T00:37:15;153357.47;;;17.15;100.00
54503;BME280;40411;50.090;21.954;2022-08-07T00:39:41;153356.19;;;17.15;100.00
54503;BME280;40411;50.090;21.954;2022-08-07T00:42:07;153344.63;;;17.10;100.00
54503;BME280;40411;50.090;21.954;2022-08-07T00:44:33;153405.03;;;17.34;100.00
54503;BME280;40411;50.090;21.954;2022-08-07T00:47:01;153325.38;;;17.03;100.00
54503;BME280;40411;50.090;21.954;2022-08-07T00:49:27;153348.50;;;17.12;100.00
54503;BME280;40411;50.090;21.954;2022-08-07T00:51:53;153331.81;;;17.05;100.00
54503;BME280;40411;50.090;21.954;2022-08-07T00:54:19;153343.34;;;17.10;100.00
54503;BME280;40411;50.090;21.954;2022-08-07T00:56:47;153299.66;;;16.92;100.00
54503;BME280;40411;50.090;21.954;2022-08-07T00:59:13;153303.53;;;16.94;100.00
54503;BME280;40411;50.090;21.954;2022-08-07T01:01:39;153264.97;;;16.79;100.00
54503;BME280;40411;50.090;21.954;2022-08-07T01:04:07;153325.38;;;17.03;100.00
54503;BME280;40411;50.090;21.954;2022-08-07T01:06:33;153347.22;;;17.11;100.00
54503;BME280;40411;50.090;21.954;2022-08-07T01:09:00;153343.34;;;17.10;100.00
54503;BME280;40411;50.090;21.954;2022-08-07T01:11:28;153214.81;;;16.59;100.00
54503;BME280;40411;50.090;21.954;2022-08-07T01:13:54;153302.22;;;16.93;100.00
54503;BME280;40411;50.090;21.954;2022-08-07T01:16:20;153263.69;;;16.78;100.00
54503;BME280;40411;50.090;21.954;2022-08-07T01:18:46;153279.09;;;16.84;100.00
54503;BME280;40411;50.090;21.954;2022-08-07T01:21:16;153281.66;;;16.85;100.00
54503;BME280;40411;50.090;21.954;2022-08-07T01:23:44;153272.66;;;16.82;100.00
54503;BME280;40411;50.090;21.954;2022-08-07T01:26:14;153299.66;;;16.92;100.00
54503;BME280;40411;50.090;21.954;2022-08-07T01:28:44;153315.06;;;16.98;100.00
54503;BME280;40411;50.090;21.954;2022-08-07T01:31:12;153288.06;;;16.88;100.00
54503;BME280;40411;50.090;21.954;2022-08-07T01:33:38;153275.25;;;16.83;100.00
54503;BME280;40411;50.090;21.954;2022-08-07T01:36:04;153284.25;;;16.86;100.00
54503;BME280;40411;50.090;21.954;2022-08-07T01:38:37;153325.38;;;17.03;100.00
54503;BME280;40411;50.090;21.954;2022-08-07T01:41:12;153361.34;;;17.17;100.00
54503;BME280;40411;50.090;21.954;2022-08-07T01:43:41;153309.91;;;16.96;100.00
54503;BME280;40411;50.090;21.954;2022-08-07T01:46:07;153331.81;;;17.05;100.00
54503;BME280;40411;50.090;21.954;2022-08-07T01:48:37;153344.63;;;17.10;100.00
54503;BME280;40411;50.090;21.954;2022-08-07T01:51:08;153330.47;;;17.05;100.00
54503;BME280;40411;50.090;21.954;2022-08-07T01:53:35;153304.81;;;16.94;100.00
54503;BME280;40411;50.090;21.954;2022-08-07T01:56:15;153297.09;;;16.91;100.00
54503;BME280;40411;50.090;21.954;2022-08-07T01:58:48;153281.66;;;16.85;100.00
54503;BME280;40411;50.090;21.954;2022-08-07T02:01:22;153329.19;;;17.04;100.00
54503;BME280;40411;50.090;21.954;2022-08-07T02:04:00;153253.31;;;16.74;100.00
54503;BME280;40411;50.090;21.954;2022-08-07T02:06:31;153294.50;;;16.90;100.00
54503;BME280;40411;50.090;21.954;2022-08-07T02:09:05;153343.34;;;17.10;100.00
54503;BME280;40411;50.090;21.954;2022-08-07T02:11:38;153329.19;;;17.04;100.00
54503;BME280;40411;50.090;21.954;2022-08-07T02:14:07;153255.94;;;16.75;100.00
54503;BME280;40411;50.090;21.954;2022-08-07T02:16:36;153288.06;;;16.88;100.00
54503;BME280;40411;50.090;21.954;2022-08-07T02:19:07;153349.78;;;17.12;100.00
54503;BME280;40411;50.090;21.954;2022-08-07T02:21:36;153348.50;;;17.12;100.00
54503;BME280;40411;50.090;21.954;2022-08-07T02:24:04;153363.91;;;17.18;100.00
54503;BME280;40411;50.090;21.954;2022-08-07T02:26:32;153363.91;;;17.18;100.00
54503;BME280;40411;50.090;21.954;2022-08-07T02:29:00;153416.63;;;17.39;100.00
54503;BME280;40411;50.090;21.954;2022-08-07T02:31:29;153356.19;;;17.15;100.00
54503;BME280;40411;50.090;21.954;2022-08-07T02:33:57;153358.75;;;17.16;100.00
54503;BME280;40411;50.090;21.954;2022-08-07T02:36:25;153250.78;;;16.73;100.00
54503;BME280;40411;50.090;21.954;2022-08-07T02:38:55;153306.09;;;16.95;100.00
54503;BME280;40411;50.090;21.954;2022-08-07T02:41:23;153302.22;;;16.93;100.00
54503;BME280;40411;50.090;21.954;2022-08-07T02:43:51;153264.97;;;16.79;100.00
54503;BME280;40411;50.090;21.954;2022-08-07T02:46:22;153230.22;;;16.65;100.00
54503;BME280;40411;50.090;21.954;2022-08-07T02:48:49;153291.94;;;16.89;100.00
54503;BME280;40411;50.090;21.954;2022-08-07T02:51:18;153344.63;;;17.10;100.00
54503;BME280;40411;50.090;21.954;2022-08-07T02:53:51;153280.38;;;16.85;100.00
54503;BME280;40411;50.090;21.954;2022-08-07T02:56:22;153243.06;;;16.70;100.00
54503;BME280;40411;50.090;21.954;2022-08-07T02:58:53;153254.66;;;16.74;100.00
54503;BME280;40411;50.090;21.954;2022-08-07T03:01:20;153225.06;;;16.63;100.00
54503;BME280;40411;50.090;21.954;2022-08-07T03:03:48;153230.22;;;16.65;100.00
54503;BME280;40411;50.090;21.954;2022-08-07T03:06:19;153185.25;;;16.47;100.00
54503;BME280;40411;50.090;21.954;2022-08-07T03:08:46;153213.53;;;16.58;100.00
54503;BME280;40411;50.090;21.954;2022-08-07T03:11:12;153201.94;;;16.53;100.00
54503;BME280;40411;50.090;21.954;2022-08-07T03:13:42;153241.78;;;16.69;100.00
54503;BME280;40411;50.090;21.954;2022-08-07T03:16:09;153232.75;;;16.66;100.00
54503;BME280;40411;50.090;21.954;2022-08-07T03:18:37;153335.63;;;17.07;100.00
54503;BME280;40411;50.090;21.954;2022-08-07T03:21:05;153351.06;;;17.13;100.00
54503;BME280;40411;50.090;21.954;2022-08-07T03:23:33;153298.38;;;16.92;100.00
54503;BME280;40411;50.090;21.954;2022-08-07T03:26:00;153241.78;;;16.69;100.00
54503;BME280;40411;50.090;21.954;2022-08-07T03:28:33;153299.66;;;16.92;100.00
54503;BME280;40411;50.090;21.954;2022-08-07T03:31:02;153198.13;;;16.52;100.00
54503;BME280;40411;50.090;21.954;2022-08-07T03:33:50;153263.69;;;16.78;100.00
54503;BME280;40411;50.090;21.954;2022-08-07T03:36:19;153318.94;;;17.00;100.00
54503;BME280;40411;50.090;21.954;2022-08-07T03:38:46;153281.66;;;16.85;100.00
54503;BME280;40411;50.090;21.954;2022-08-07T03:41:15;153299.66;;;16.92;100.00
54503;BME280;40411;50.090;21.954;2022-08-07T03:43:42;153281.66;;;16.85;100.00
54503;BME280;40411;50.090;21.954;2022-08-07T03:46:08;153315.06;;;16.98;100.00
54503;BME280;40411;50.090;21.954;2022-08-07T03:48:35;153288.06;;;16.88;100.00
54503;BME280;40411;50.090;21.954;2022-08-07T03:51:02;153289.41;;;16.88;100.00
54503;BME280;40411;50.090;21.954;2022-08-07T03:53:39;153297.09;;;16.91;100.00
54503;BME280;40411;50.090;21.954;2022-08-07T03:56:06;153273.94;;;16.82;100.00
54503;BME280;40411;50.090;21.954;2022-08-07T03:58:36;153198.13;;;16.52;100.00
54503;BME280;40411;50.090;21.954;2022-08-07T04:01:05;153237.91;;;16.68;100.00
54503;BME280;40411;50.090;21.954;2022-08-07T04:03:35;153289.41;;;16.88;100.00
54503;BME280;40411;50.090;21.954;2022-08-07T04:06:01;153317.66;;;17.00;100.00
54503;BME280;40411;50.090;21.954;2022-08-07T04:08:28;153333.09;;;17.06;100.00
54503;BME280;40411;50.090;21.954;2022-08-07T04:10:56;153340.78;;;17.09;100.00
54503;BME280;40411;50.090;21.954;2022-08-07T04:13:22;153308.63;;;16.96;100.00
54503;BME280;40411;50.090;21.954;2022-08-07T04:15:49;153307.38;;;16.95;100.00
54503;BME280;40411;50.090;21.954;2022-08-07T04:18:17;153289.41;;;16.88;100.00
54503;BME280;40411;50.090;21.954;2022-08-07T04:20:45;153353.66;;;17.14;100.00
54503;BME280;40411;50.090;21.954;2022-08-07T04:23:12;153361.34;;;17.17;100.00
54503;BME280;40411;50.090;21.954;2022-08-07T04:25:40;153311.25;;;16.97;100.00
54503;BME280;40411;50.090;21.954;2022-08-07T04:28:08;153250.78;;;16.73;100.00
54503;BME280;40411;50.090;21.954;2022-08-07T04:30:38;153329.19;;;17.04;100.00
54503;BME280;40411;50.090;21.954;2022-08-07T04:33:10;153267.50;;;16.80;100.00
54503;BME280;40411;50.090;21.954;2022-08-07T04:35:43;153307.38;;;16.95;100.00
54503;BME280;40411;50.090;21.954;2022-08-07T04:38:13;153362.63;;;17.17;100.00
54503;BME280;40411;50.090;21.954;2022-08-07T04:40:44;153381.91;;;17.25;100.00
54503;BME280;40411;50.090;21.954;2022-08-07T04:43:11;153405.03;;;17.34;100.00
54503;BME280;40411;50.090;21.954;2022-08-07T04:45:51;153345.94;;;17.11;100.00
54503;BME280;40411;50.090;21.954;2022-08-07T04:51:05;153374.22;;;17.22;100.00
54503;BME280;40411;50.090;21.954;2022-08-07T04:53:45;153399.88;;;17.32;100.00
54503;BME280;40411;50.090;21.954;2022-08-07T04:56:29;153369.06;;;17.20;100.00
54503;BME280;40411;50.090;21.954;2022-08-07T04:59:13;153446.19;;;17.51;100.00
54503;BME280;40411;50.090;21.954;2022-08-07T05:01:46;153415.34;;;17.38;100.00
54503;BME280;40411;50.090;21.954;2022-08-07T05:04:22;153420.47;;;17.40;100.00
54503;BME280;40411;50.090;21.954;2022-08-07T05:10:02;153416.63;;;17.39;100.00
54503;BME280;40411;50.090;21.954;2022-08-07T05:13:15;153496.31;;;17.71;100.00
54503;BME280;40411;50.090;21.954;2022-08-07T05:15:44;153523.38;;;17.81;100.00
54503;BME280;40411;50.090;21.954;2022-08-07T05:18:22;153536.25;;;17.86;100.00
54503;BME280;40411;50.090;21.954;2022-08-07T05:20:53;153533.66;;;17.85;100.00
54503;BME280;40411;50.090;21.954;2022-08-07T05:23:31;153570.97;;;18.00;100.00
54503;BME280;40411;50.090;21.954;2022-08-07T05:26:02;153533.66;;;17.85;100.00
54503;BME280;40411;50.090;21.954;2022-08-07T05:28:33;153482.19;;;17.65;100.00
54503;BME280;40411;50.090;21.954;2022-08-07T05:31:00;153564.53;;;17.98;100.00
54503;BME280;40411;50.090;21.954;2022-08-07T05:33:28;153590.28;;;18.08;100.00
54503;BME280;40411;50.090;21.954;2022-08-07T05:35:55;153603.09;;;18.13;100.00
54503;BME280;40411;50.090;21.954;2022-08-07T05:38:23;153579.97;;;18.04;100.00
54503;BME280;40411;50.090;21.954;2022-08-07T05:40:50;153618.56;;;18.19;100.00
54503;BME280;40411;50.090;21.954;2022-08-07T05:43:16;153592.81;;;18.09;100.00
54503;BME280;40411;50.090;21.954;2022-08-07T05:45:43;153646.84;;;18.30;100.00
54503;BME280;40411;50.090;21.954;2022-08-07T05:48:09;153636.53;;;18.26;100.00
54503;BME280;40411;50.090;21.954;2022-08-07T05:50:42;153542.69;;;17.89;100.00
54503;BME280;40411;50.090;21.954;2022-08-07T05:53:09;153567.09;;;17.99;100.00
54503;BME280;40411;50.090;21.954;2022-08-07T05:55:36;153550.38;;;17.92;100.00
54503;BME280;40411;50.090;21.954;2022-08-07T05:58:04;153613.41;;;18.17;100.00
54503;BME280;40411;50.090;21.954;2022-08-07T06:00:32;153633.97;;;18.25;100.00
54503;BME280;40411;50.090;21.954;2022-08-07T06:03:04;153671.28;;;18.40;100.00
54503;BME280;40411;50.090;21.954;2022-08-07T06:05:33;153744.63;;;18.69;100.00
54503;BME280;40411;50.090;21.954;2022-08-07T06:08:04;153809.00;;;18.95;100.00
54503;BME280;40411;50.090;21.954;2022-08-07T06:10:31;153799.94;;;18.91;100.00
54503;BME280;40411;50.090;21.954;2022-08-07T06:12:59;153855.28;;;19.13;100.00
54503;BME280;40411;50.090;21.954;2022-08-07T06:15:28;153984.03;;;19.64;100.00
54503;BME280;40411;50.090;21.954;2022-08-07T06:17:54;153919.66;;;19.39;100.00
54503;BME280;40411;50.090;21.954;2022-08-07T06:20:23;153861.72;;;19.16;99.89
54503;BME280;40411;50.090;21.954;2022-08-07T06:22:51;153945.38;;;19.49;99.93
54503;BME280;40411;50.090;21.954;2022-08-07T06:25:36;153932.50;;;19.44;100.00
54503;BME280;40411;50.090;21.954;2022-08-07T06:28:03;153788.41;;;18.87;100.00
54503;BME280;40411;50.090;21.954;2022-08-07T06:30:31;153951.81;;;19.52;100.00
54503;BME280;40411;50.090;21.954;2022-08-07T06:32:57;153978.84;;;19.62;100.00
54503;BME280;40411;50.090;21.954;2022-08-07T06:35:24;153964.69;;;19.57;99.46
54503;BME280;40411;50.090;21.954;2022-08-07T06:37:50;154155.28;;;20.33;100.00
54503;BME280;40411;50.090;21.954;2022-08-07T06:40:16;154084.47;;;20.04;99.25
54503;BME280;40411;50.090;21.954;2022-08-07T06:42:45;154120.53;;;20.19;98.52
54503;BME280;40411;50.090;21.954;2022-08-07T06:45:30;153848.84;;;19.11;98.22
54503;BME280;40411;50.090;21.954;2022-08-07T06:48:01;153968.53;;;19.58;100.00
54503;BME280;40411;50.090;21.954;2022-08-07T06:50:35;153837.28;;;19.06;98.38
54503;BME280;40411;50.090;21.954;2022-08-07T06:53:06;153955.69;;;19.53;100.00
54503;BME280;40411;50.090;21.954;2022-08-07T06:55:34;154039.44;;;19.86;97.48
54503;BME280;40411;50.090;21.954;2022-08-07T06:58:06;154003.34;;;19.72;94.87
54503;BME280;40411;50.090;21.954;2022-08-07T07:00:41;153989.19;;;19.67;97.71
54503;BME280;40411;50.090;21.954;2022-08-07T07:03:11;154004.66;;;19.73;94.05
54503;BME280;40411;50.090;21.954;2022-08-07T07:05:38;153994.34;;;19.69;96.40
54503;BME280;40411;50.090;21.954;2022-08-07T07:08:06;154145.00;;;20.28;93.03
54503;BME280;40411;50.090;21.954;2022-08-07T07:10:34;154218.44;;;20.58;94.95
54503;BME280;40411;50.090;21.954;2022-08-07T07:15:42;154322.78;;;20.99;91.41
54503;BME280;40411;50.090;21.954;2022-08-07T07:18:23;154321.50;;;20.98;92.19
54503;BME280;40411;50.090;21.954;2022-08-07T07:20:52;154295.72;;;20.88;88.46
54503;BME280;40411;50.090;21.954;2022-08-07T07:23:21;154208.16;;;20.53;90.74
54503;BME280;40411;50.090;21.954;2022-08-07T07:25:50;154324.06;;;21.00;89.43
54503;BME280;40411;50.090;21.954;2022-08-07T07:28:24;154440.09;;;21.46;90.13
54503;BME280;40411;50.090;21.954;2022-08-07T07:30:59;154468.44;;;21.57;88.10
54503;BME280;40411;50.090;21.954;2022-08-07T07:33:27;154598.59;;;22.08;87.19
54503;BME280;40411;50.090;21.954;2022-08-07T07:35:56;154624.44;;;22.19;84.27
54503;BME280;40411;50.090;21.954;2022-08-07T07:38:23;154713.41;;;22.54;84.06
54503;BME280;40411;50.090;21.954;2022-08-07T07:40:59;154700.50;;;22.49;77.98
54503;BME280;40411;50.090;21.954;2022-08-07T07:43:29;154983.00;;;23.61;75.08
54503;BME280;40411;50.090;21.954;2022-08-07T07:45:57;155134.00;;;24.21;78.51
54503;BME280;40411;50.090;21.954;2022-08-07T07:48:25;155277.38;;;24.78;68.01
54503;BME280;40411;50.090;21.954;2022-08-07T07:50:53;155211.50;;;24.51;63.28
54503;BME280;40411;50.090;21.954;2022-08-07T07:53:21;155175.31;;;24.37;62.39
54503;BME280;40411;50.090;21.954;2022-08-07T07:55:54;155379.38;;;25.18;58.34
54503;BME280;40411;50.090;21.954;2022-08-07T07:58:21;155212.84;;;24.52;57.52
54503;BME280;40411;50.090;21.954;2022-08-07T08:00:49;155701.09;;;26.45;63.78
54503;BME280;40411;50.090;21.954;2022-08-07T08:03:16;155526.63;;;25.76;56.94
54503;BME280;40411;50.090;21.954;2022-08-07T08:05:44;155330.28;;;24.98;56.52
54503;BME280;40411;50.090;21.954;2022-08-07T08:08:11;155549.94;;;25.85;62.14
54503;BME280;40411;50.090;21.954;2022-08-07T08:10:38;155369.03;;;25.14;56.08
54503;BME280;40411;50.090;21.954;2022-08-07T08:13:06;155500.81;;;25.66;60.01
54503;BME280;40411;50.090;21.954;2022-08-07T08:15:36;155025.63;;;23.78;61.66
54503;BME280;40411;50.090;21.954;2022-08-07T08:18:06;154899.16;;;23.28;62.75
54503;BME280;40411;50.090;21.954;2022-08-07T08:20:34;154764.97;;;22.74;63.62
54503;BME280;40411;50.090;21.954;2022-08-07T08:23:01;154881.06;;;23.20;64.98
54503;BME280;40411;50.090;21.954;2022-08-07T08:25:48;155087.56;;;24.02;65.73
54503;BME280;40411;50.090;21.954;2022-08-07T08:28:39;155008.88;;;23.71;63.04
54503;BME280;40411;50.090;21.954;2022-08-07T08:31:09;155069.50;;;23.95;58.68
54503;BME280;40411;50.090;21.954;2022-08-07T08:33:37;155159.84;;;24.31;59.18
54503;BME280;40411;50.090;21.954;2022-08-07T08:36:06;155382.00;;;25.19;60.90
54503;BME280;40411;50.090;21.954;2022-08-07T08:38:37;155084.97;;;24.01;61.77
54503;BME280;40411;50.090;21.954;2022-08-07T08:41:16;155460.75;;;25.50;56.39
54503;BME280;40411;50.090;21.954;2022-08-07T08:44:07;155341.91;;;25.03;54.43
54503;BME280;40411;50.090;21.954;2022-08-07T08:46:45;155822.59;;;26.93;53.89
54503;BME280;40411;50.090;21.954;2022-08-07T08:49:20;155966.16;;;27.50;54.01
54503;BME280;40411;50.090;21.954;2022-08-07T08:51:55;155719.25;;;26.52;53.82
54503;BME280;40411;50.090;21.954;2022-08-07T08:54:27;155710.13;;;26.49;50.26
54503;BME280;40411;50.090;21.954;2022-08-07T08:56:56;155720.53;;;26.53;50.65
54503;BME280;40411;50.090;21.954;2022-08-07T09:07:44;155764.44;;;26.70;49.55
54503;BME280;40411;50.090;21.954;2022-08-07T09:16:17;156429.31;;;29.33;43.00
54503;BME280;40411;50.090;21.954;2022-08-07T09:24:39;155906.66;;;27.27;45.31
54503;BME280;40411;50.090;21.954;2022-08-07T09:30:12;156230.03;;;28.55;40.90
54503;BME280;40411;50.090;21.954;2022-08-07T09:35:57;156367.25;;;29.09;43.24
54503;BME280;40411;50.090;21.954;2022-08-07T09:45:06;156178.28;;;28.34;39.81
54503;BME280;40411;50.090;21.954;2022-08-07T09:52:59;155720.53;;;26.53;45.52
54503;BME280;40411;50.090;21.954;2022-08-07T10:04:27;156162.75;;;28.28;42.22
54503;BME280;40411;50.090;21.954;2022-08-07T10:09:58;156307.66;;;28.85;39.97
54503;BME280;40411;50.090;21.954;2022-08-07T10:18:10;156132.97;;;28.16;41.73
54503;BME280;40411;50.090;21.954;2022-08-07T10:34:47;155928.63;;;27.35;44.47
54503;BME280;40411;50.090;21.954;2022-08-07T10:40:16;155985.50;;;27.58;41.17
54503;BME280;40411;50.090;21.954;2022-08-07T10:45:26;156015.28;;;27.70;40.47
54503;BME280;40411;50.090;21.954;2022-08-07T10:48:02;155873.00;;;27.13;40.85
54503;BME280;40411;50.090;21.954;2022-08-07T10:53:51;155724.38;;;26.55;40.55
54503;BME280;40411;50.090;21.954;2022-08-07T10:56:39;155751.53;;;26.65;47.46
54503;BME280;40411;50.090;21.954;2022-08-07T10:59:19;155761.88;;;26.69;43.41
54503;BME280;40411;50.090;21.954;2022-08-07T11:05:22;155922.16;;;27.33;39.67
54503;BME280;40411;50.090;21.954;2022-08-07T11:08:01;155715.34;;;26.51;46.14
54503;BME280;40411;50.090;21.954;2022-08-07T11:10:44;155565.44;;;25.92;38.81
54503;BME280;40411;50.090;21.954;2022-08-07T11:13:17;155742.50;;;26.62;41.52
54503;BME280;40411;50.090;21.954;2022-08-07T11:15:47;155570.63;;;25.94;39.42
54503;BME280;40411;50.090;21.954;2022-08-07T11:18:23;155648.13;;;26.24;41.81
54503;BME280;40411;50.090;21.954;2022-08-07T11:24:05;155539.53;;;25.81;44.64
54503;BME280;40411;50.090;21.954;2022-08-07T11:29:18;155831.69;;;26.97;43.81
54503;BME280;40411;50.090;21.954;2022-08-07T11:34:47;156215.81;;;28.49;37.75
54503;BME280;40411;50.090;21.954;2022-08-07T11:40:09;156149.81;;;28.23;39.40
54503;BME280;40411;50.090;21.954;2022-08-07T11:43:14;156111.00;;;28.07;41.24
54503;BME280;40411;50.090;21.954;2022-08-07T12:00:10;155667.47;;;26.32;38.48
54503;BME280;40411;50.090;21.954;2022-08-07T12:03:28;155727.00;;;26.56;45.60
54503;BME280;40411;50.090;21.954;2022-08-07T12:09:32;155580.94;;;25.98;39.93
54503;BME280;40411;50.090;21.954;2022-08-07T12:12:14;155752.81;;;26.66;39.53
54503;BME280;40411;50.090;21.954;2022-08-07T12:14:51;155776.09;;;26.75;39.70
54503;BME280;40411;50.090;21.954;2022-08-07T12:17:23;155811.00;;;26.89;41.55
54503;BME280;40411;50.090;21.954;2022-08-07T12:19:58;155733.47;;;26.58;40.80
54503;BME280;40411;50.090;21.954;2022-08-07T12:22:55;155839.44;;;27.00;41.72
54503;BME280;40411;50.090;21.954;2022-08-07T12:28:45;155613.25;;;26.11;37.69
54503;BME280;40411;50.090;21.954;2022-08-07T12:31:18;155591.25;;;26.02;40.35
54503;BME280;40411;50.090;21.954;2022-08-07T12:33:47;155379.38;;;25.18;41.17
54503;BME280;40411;50.090;21.954;2022-08-07T12:36:14;155296.75;;;24.85;39.46
54503;BME280;40411;50.090;21.954;2022-08-07T12:38:42;155363.84;;;25.12;42.95
54503;BME280;40411;50.090;21.954;2022-08-07T12:41:11;155542.13;;;25.82;41.36
54503;BME280;40411;50.090;21.954;2022-08-07T12:43:39;155508.56;;;25.69;42.22
54503;BME280;40411;50.090;21.954;2022-08-07T12:51:26;155340.63;;;25.03;41.86
54503;BME280;40411;50.090;21.954;2022-08-07T12:54:07;155356.13;;;25.09;41.99
54503;BME280;40411;50.090;21.954;2022-08-07T12:56:39;155397.50;;;25.25;44.36
54503;BME280;40411;50.090;21.954;2022-08-07T12:59:10;155513.69;;;25.71;43.81
54503;BME280;40411;50.090;21.954;2022-08-07T13:01:57;155549.94;;;25.85;38.74
54503;BME280;40411;50.090;21.954;2022-08-07T13:10:55;155469.78;;;25.54;41.84
54503;BME280;40411;50.090;21.954;2022-08-07T13:13:28;155433.63;;;25.39;39.93
54503;BME280;40411;50.090;21.954;2022-08-07T13:19:16;155365.13;;;25.12;40.00
54503;BME280;40411;50.090;21.954;2022-08-07T13:27:09;155621.00;;;26.14;42.08
54503;BME280;40411;50.090;21.954;2022-08-07T13:29:44;155633.94;;;26.19;38.26
54503;BME280;40411;50.090;21.954;2022-08-07T13:32:19;155663.63;;;26.30;36.39
54503;BME280;40411;50.090;21.954;2022-08-07T13:35:28;155547.34;;;25.84;38.79
54503;BME280;40411;50.090;21.954;2022-08-07T13:37:57;155701.09;;;26.45;38.80
54503;BME280;40411;50.090;21.954;2022-08-07T13:40:24;155565.44;;;25.92;37.55
54503;BME280;40411;50.090;21.954;2022-08-07T13:42:56;155538.25;;;25.81;38.67
54503;BME280;40411;50.090;21.954;2022-08-07T13:45:24;155627.47;;;26.16;37.27
54503;BME280;40411;50.090;21.954;2022-08-07T13:47:54;155742.50;;;26.62;38.19
54503;BME280;40411;50.090;21.954;2022-08-07T13:50:24;155734.75;;;26.59;38.61
54503;BME280;40411;50.090;21.954;2022-08-07T13:52:52;155574.47;;;25.95;37.58
54503;BME280;40411;50.090;21.954;2022-08-07T13:55:19;155477.53;;;25.57;39.43
54503;BME280;40411;50.090;21.954;2022-08-07T13:57:52;155524.06;;;25.75;37.58
54503;BME280;40411;50.090;21.954;2022-08-07T14:00:33;155614.53;;;26.11;38.42
54503;BME280;40411;50.090;21.954;2022-08-07T14:03:02;155515.03;;;25.72;38.54
54503;BME280;40411;50.090;21.954;2022-08-07T14:05:30;155552.50;;;25.87;38.41
54503;BME280;40411;50.090;21.954;2022-08-07T14:07:57;155573.19;;;25.95;40.79
54503;BME280;40411;50.090;21.954;2022-08-07T14:10:24;155517.59;;;25.73;37.62
54503;BME280;40411;50.090;21.954;2022-08-07T14:12:54;155608.06;;;26.08;36.95
54503;BME280;40411;50.090;21.954;2022-08-07T14:15:29;155642.94;;;26.22;35.69
54503;BME280;40411;50.090;21.954;2022-08-07T14:18:13;155617.09;;;26.12;41.50
54503;BME280;40411;50.090;21.954;2022-08-07T14:20:42;155503.38;;;25.67;35.53
54503;BME280;40411;50.090;21.954;2022-08-07T14:23:15;155668.75;;;26.33;37.88
54503;BME280;40411;50.090;21.954;2022-08-07T14:25:43;155618.38;;;26.13;37.41
54503;BME280;40411;50.090;21.954;2022-08-07T14:28:13;155653.28;;;26.26;37.35
54503;BME280;40411;50.090;21.954;2022-08-07T14:30:44;155552.50;;;25.87;38.64
54503;BME280;40411;50.090;21.954;2022-08-07T14:33:14;155418.16;;;25.33;36.28
54503;BME280;40411;50.090;21.954;2022-08-07T14:35:41;155420.72;;;25.34;40.01
54503;BME280;40411;50.090;21.954;2022-08-07T14:38:08;155560.25;;;25.90;35.73
54503;BME280;40411;50.090;21.954;2022-08-07T14:40:35;155398.78;;;25.26;38.86
54503;BME280;40411;50.090;21.954;2022-08-07T14:43:06;155489.19;;;25.61;36.32
54503;BME280;40411;50.090;21.954;2022-08-07T14:45:44;155533.09;;;25.79;37.48
54503;BME280;40411;50.090;21.954;2022-08-07T14:48:12;155366.41;;;25.13;35.30
54503;BME280;40411;50.090;21.954;2022-08-07T14:50:49;155529.25;;;25.77;37.12
54503;BME280;40411;50.090;21.954;2022-08-07T14:53:17;155659.72;;;26.29;36.63
54503;BME280;40411;50.090;21.954;2022-08-07T14:55:44;155463.34;;;25.51;37.25
54503;BME280;40411;50.090;21.954;2022-08-07T14:58:12;155511.13;;;25.70;37.80
54503;BME280;40411;50.090;21.954;2022-08-07T15:00:42;155405.22;;;25.28;36.31
54503;BME280;40411;50.090;21.954;2022-08-07T15:03:09;155405.22;;;25.28;37.14
54503;BME280;40411;50.090;21.954;2022-08-07T15:05:36;155419.44;;;25.34;36.19
54503;BME280;40411;50.090;21.954;2022-08-07T15:08:05;155444.00;;;25.44;35.92
54503;BME280;40411;50.090;21.954;2022-08-07T15:10:39;155437.53;;;25.41;39.07
54503;BME280;40411;50.090;21.954;2022-08-07T15:13:16;155423.34;;;25.35;36.42
54503;BME280;40411;50.090;21.954;2022-08-07T15:15:50;155403.94;;;25.28;35.45
54503;BME280;40411;50.090;21.954;2022-08-07T15:18:24;155348.38;;;25.06;37.64